Terminal Aerodrome Forecast
Issued by NWS

Home | Current Version | Previous Version | Text Only | Print | Product List | Glossary On
Versions: 1 2 3 4 5 6 7 8 9 10 11 12 13 14 15 16 17 18 19 20
000
FTAK31 PAFA 242334
TAFAOM
TAF
PAOM 242334Z 2500/2524 18010KT P6SM VCSH FEW015 SCT050
     FM250200 15015KT 6SM -SHSN BR SCT007 BKN015 OVC020
     FM250600 15015KT 4SM -SN BR BKN007 OVC015
     FM250900 15020KT 1 1/2SM -SN BR BKN007 OVC015
     FM252100 21010KT 6SM BR VCSH OVC015=

USA.gov is the U.S. government's official web portal to all federal, state and local government web resources and services.